sensor_id;sensor_type;location;lat;lon;timestamp;P1;durP1;ratioP1;P2;durP2;ratioP2
7525;SDS011;3804;50.860;6.208;2023-04-06T00:00:48;13.93;;;8.53;;
7525;SDS011;3804;50.860;6.208;2023-04-06T00:03:15;13.00;;;8.10;;
7525;SDS011;3804;50.860;6.208;2023-04-06T00:05:42;13.87;;;8.50;;
7525;SDS011;3804;50.860;6.208;2023-04-06T00:08:09;12.77;;;8.43;;
7525;SDS011;3804;50.860;6.208;2023-04-06T00:10:36;11.97;;;8.07;;
7525;SDS011;3804;50.860;6.208;2023-04-06T00:13:03;13.53;;;8.37;;
7525;SDS011;3804;50.860;6.208;2023-04-06T00:15:30;12.53;;;8.67;;
7525;SDS011;3804;50.860;6.208;2023-04-06T00:17:57;13.43;;;8.20;;
7525;SDS011;3804;50.860;6.208;2023-04-06T00:20:24;14.53;;;8.60;;
7525;SDS011;3804;50.860;6.208;2023-04-06T00:22:51;13.23;;;8.37;;
7525;SDS011;3804;50.860;6.208;2023-04-06T00:25:18;12.80;;;8.57;;
7525;SDS011;3804;50.860;6.208;2023-04-06T00:27:45;15.17;;;8.33;;
7525;SDS011;3804;50.860;6.208;2023-04-06T00:30:12;13.17;;;9.10;;
7525;SDS011;3804;50.860;6.208;2023-04-06T00:32:39;12.73;;;8.27;;
7525;SDS011;3804;50.860;6.208;2023-04-06T00:35:09;14.13;;;9.20;;
7525;SDS011;3804;50.860;6.208;2023-04-06T00:37:36;14.70;;;8.43;;
7525;SDS011;3804;50.860;6.208;2023-04-06T00:40:04;14.07;;;8.43;;
7525;SDS011;3804;50.860;6.208;2023-04-06T00:42:31;11.67;;;8.20;;
7525;SDS011;3804;50.860;6.208;2023-04-06T00:44:58;15.00;;;8.63;;
7525;SDS011;3804;50.860;6.208;2023-04-06T00:47:26;14.37;;;8.80;;
7525;SDS011;3804;50.860;6.208;2023-04-06T00:49:53;16.20;;;8.93;;
7525;SDS011;3804;50.860;6.208;2023-04-06T00:52:20;17.57;;;9.53;;
7525;SDS011;3804;50.860;6.208;2023-04-06T00:54:48;12.87;;;8.73;;
7525;SDS011;3804;50.860;6.208;2023-04-06T00:57:18;15.53;;;9.17;;
7525;SDS011;3804;50.860;6.208;2023-04-06T00:59:50;14.80;;;9.60;;
7525;SDS011;3804;50.860;6.208;2023-04-06T01:02:18;15.80;;;8.60;;
7525;SDS011;3804;50.860;6.208;2023-04-06T01:04:48;12.83;;;8.57;;
7525;SDS011;3804;50.860;6.208;2023-04-06T01:07:23;14.73;;;8.63;;
7525;SDS011;3804;50.860;6.208;2023-04-06T01:10:24;11.30;;;8.07;;
7525;SDS011;3804;50.860;6.208;2023-04-06T01:12:55;14.23;;;8.87;;
7525;SDS011;3804;50.860;6.208;2023-04-06T01:15:40;15.30;;;9.00;;
7525;SDS011;3804;50.860;6.208;2023-04-06T01:18:11;17.47;;;9.27;;
7525;SDS011;3804;50.860;6.208;2023-04-06T01:20:45;13.67;;;9.03;;
7525;SDS011;3804;50.860;6.208;2023-04-06T01:23:14;15.83;;;8.90;;
7525;SDS011;3804;50.860;6.208;2023-04-06T01:25:45;14.07;;;8.93;;
7525;SDS011;3804;50.860;6.208;2023-04-06T01:28:12;13.93;;;9.20;;
7525;SDS011;3804;50.860;6.208;2023-04-06T01:30:53;13.70;;;9.13;;
7525;SDS011;3804;50.860;6.208;2023-04-06T01:33:38;13.03;;;8.23;;
7525;SDS011;3804;50.860;6.208;2023-04-06T01:36:09;13.00;;;8.63;;
7525;SDS011;3804;50.860;6.208;2023-04-06T01:38:36;13.70;;;9.07;;
7525;SDS011;3804;50.860;6.208;2023-04-06T01:41:03;14.00;;;9.13;;
7525;SDS011;3804;50.860;6.208;2023-04-06T01:43:39;15.53;;;9.20;;
7525;SDS011;3804;50.860;6.208;2023-04-06T01:46:09;17.47;;;10.23;;
7525;SDS011;3804;50.860;6.208;2023-04-06T01:48:39;15.00;;;9.93;;
7525;SDS011;3804;50.860;6.208;2023-04-06T01:51:30;13.77;;;9.40;;
7525;SDS011;3804;50.860;6.208;2023-04-06T01:54:00;14.97;;;9.90;;
7525;SDS011;3804;50.860;6.208;2023-04-06T01:56:42;15.83;;;9.30;;
7525;SDS011;3804;50.860;6.208;2023-04-06T01:59:23;16.40;;;9.87;;
7525;SDS011;3804;50.860;6.208;2023-04-06T02:01:50;16.77;;;10.27;;
7525;SDS011;3804;50.860;6.208;2023-04-06T02:04:17;16.20;;;9.10;;
7525;SDS011;3804;50.860;6.208;2023-04-06T02:06:47;16.87;;;10.47;;
7525;SDS011;3804;50.860;6.208;2023-04-06T02:09:18;13.13;;;9.00;;
7525;SDS011;3804;50.860;6.208;2023-04-06T02:11:45;14.97;;;9.00;;
7525;SDS011;3804;50.860;6.208;2023-04-06T02:14:12;13.90;;;9.60;;
7525;SDS011;3804;50.860;6.208;2023-04-06T02:16:45;14.03;;;9.20;;
7525;SDS011;3804;50.860;6.208;2023-04-06T02:19:12;13.70;;;9.20;;
7525;SDS011;3804;50.860;6.208;2023-04-06T02:21:39;18.17;;;8.97;;
7525;SDS011;3804;50.860;6.208;2023-04-06T02:24:06;15.60;;;9.47;;
7525;SDS011;3804;50.860;6.208;2023-04-06T02:26:33;17.30;;;9.87;;
7525;SDS011;3804;50.860;6.208;2023-04-06T02:29:00;14.70;;;8.77;;
7525;SDS011;3804;50.860;6.208;2023-04-06T02:31:28;14.00;;;8.47;;
7525;SDS011;3804;50.860;6.208;2023-04-06T02:33:55;15.10;;;9.37;;
7525;SDS011;3804;50.860;6.208;2023-04-06T02:36:22;15.77;;;8.90;;
7525;SDS011;3804;50.860;6.208;2023-04-06T02:38:50;14.13;;;9.13;;
7525;SDS011;3804;50.860;6.208;2023-04-06T02:41:18;14.90;;;9.63;;
7525;SDS011;3804;50.860;6.208;2023-04-06T02:43:45;16.83;;;9.07;;
7525;SDS011;3804;50.860;6.208;2023-04-06T02:46:24;13.57;;;9.20;;
7525;SDS011;3804;50.860;6.208;2023-04-06T02:48:51;15.03;;;9.17;;
7525;SDS011;3804;50.860;6.208;2023-04-06T02:51:18;15.90;;;8.87;;
7525;SDS011;3804;50.860;6.208;2023-04-06T02:53:51;14.37;;;9.07;;
7525;SDS011;3804;50.860;6.208;2023-04-06T02:56:18;13.40;;;8.83;;
7525;SDS011;3804;50.860;6.208;2023-04-06T02:58:49;17.13;;;9.93;;
7525;SDS011;3804;50.860;6.208;2023-04-06T03:01:22;14.23;;;9.13;;
7525;SDS011;3804;50.860;6.208;2023-04-06T03:03:55;16.17;;;9.17;;
7525;SDS011;3804;50.860;6.208;2023-04-06T03:06:24;14.40;;;8.73;;
7525;SDS011;3804;50.860;6.208;2023-04-06T03:08:56;14.70;;;8.60;;
7525;SDS011;3804;50.860;6.208;2023-04-06T03:11:23;13.67;;;8.47;;
7525;SDS011;3804;50.860;6.208;2023-04-06T03:13:51;13.80;;;8.87;;
7525;SDS011;3804;50.860;6.208;2023-04-06T03:16:19;15.43;;;8.67;;
7525;SDS011;3804;50.860;6.208;2023-04-06T03:18:47;15.03;;;8.57;;
7525;SDS011;3804;50.860;6.208;2023-04-06T03:21:14;15.57;;;9.07;;
7525;SDS011;3804;50.860;6.208;2023-04-06T03:23:50;13.27;;;8.43;;
7525;SDS011;3804;50.860;6.208;2023-04-06T03:26:17;14.83;;;8.07;;
7525;SDS011;3804;50.860;6.208;2023-04-06T03:28:45;13.03;;;7.77;;
7525;SDS011;3804;50.860;6.208;2023-04-06T03:31:13;13.53;;;7.50;;
7525;SDS011;3804;50.860;6.208;2023-04-06T03:34:00;13.07;;;7.50;;
7525;SDS011;3804;50.860;6.208;2023-04-06T03:36:34;13.13;;;8.43;;
7525;SDS011;3804;50.860;6.208;2023-04-06T03:39:02;13.77;;;7.73;;
7525;SDS011;3804;50.860;6.208;2023-04-06T03:41:32;12.17;;;7.53;;
7525;SDS011;3804;50.860;6.208;2023-04-06T03:44:05;13.17;;;8.27;;
7525;SDS011;3804;50.860;6.208;2023-04-06T03:46:32;16.57;;;8.47;;
7525;SDS011;3804;50.860;6.208;2023-04-06T03:48:59;13.67;;;8.10;;
7525;SDS011;3804;50.860;6.208;2023-04-06T03:51:27;13.37;;;7.93;;
7525;SDS011;3804;50.860;6.208;2023-04-06T03:53:54;13.33;;;7.47;;
7525;SDS011;3804;50.860;6.208;2023-04-06T03:56:21;13.40;;;8.00;;
7525;SDS011;3804;50.860;6.208;2023-04-06T03:58:48;14.67;;;7.50;;
7525;SDS011;3804;50.860;6.208;2023-04-06T04:01:20;13.17;;;8.20;;
7525;SDS011;3804;50.860;6.208;2023-04-06T04:03:46;12.00;;;7.23;;
7525;SDS011;3804;50.860;6.208;2023-04-06T04:06:16;13.67;;;7.87;;
7525;SDS011;3804;50.860;6.208;2023-04-06T04:08:44;11.23;;;7.20;;
7525;SDS011;3804;50.860;6.208;2023-04-06T04:11:11;14.77;;;8.67;;
7525;SDS011;3804;50.860;6.208;2023-04-06T04:13:38;11.63;;;6.97;;
7525;SDS011;3804;50.860;6.208;2023-04-06T04:16:07;13.93;;;8.33;;
7525;SDS011;3804;50.860;6.208;2023-04-06T04:18:34;13.73;;;7.90;;
7525;SDS011;3804;50.860;6.208;2023-04-06T04:21:01;12.20;;;7.50;;
7525;SDS011;3804;50.860;6.208;2023-04-06T04:23:28;12.37;;;7.53;;
7525;SDS011;3804;50.860;6.208;2023-04-06T04:25:55;17.20;;;9.10;;
7525;SDS011;3804;50.860;6.208;2023-04-06T04:28:22;12.73;;;8.47;;
7525;SDS011;3804;50.860;6.208;2023-04-06T04:30:53;14.43;;;8.50;;
7525;SDS011;3804;50.860;6.208;2023-04-06T04:33:20;13.90;;;8.07;;
7525;SDS011;3804;50.860;6.208;2023-04-06T04:35:50;13.20;;;8.50;;
7525;SDS011;3804;50.860;6.208;2023-04-06T04:38:20;14.20;;;8.20;;
7525;SDS011;3804;50.860;6.208;2023-04-06T04:40:51;17.87;;;9.07;;
7525;SDS011;3804;50.860;6.208;2023-04-06T04:43:18;16.90;;;8.87;;
7525;SDS011;3804;50.860;6.208;2023-04-06T04:45:46;12.77;;;8.57;;
7525;SDS011;3804;50.860;6.208;2023-04-06T04:48:36;15.83;;;8.93;;
7525;SDS011;3804;50.860;6.208;2023-04-06T04:51:05;15.67;;;9.53;;
7525;SDS011;3804;50.860;6.208;2023-04-06T04:54:01;14.37;;;8.67;;
7525;SDS011;3804;50.860;6.208;2023-04-06T04:56:30;15.33;;;7.73;;
7525;SDS011;3804;50.860;6.208;2023-04-06T04:59:13;16.37;;;8.53;;
7525;SDS011;3804;50.860;6.208;2023-04-06T05:01:48;13.77;;;8.63;;
7525;SDS011;3804;50.860;6.208;2023-04-06T05:04:26;14.20;;;8.27;;
7525;SDS011;3804;50.860;6.208;2023-04-06T05:09:31;15.10;;;8.27;;
7525;SDS011;3804;50.860;6.208;2023-04-06T05:11:59;13.90;;;8.23;;
7525;SDS011;3804;50.860;6.208;2023-04-06T05:14:28;13.73;;;9.00;;
7525;SDS011;3804;50.860;6.208;2023-04-06T05:16:57;13.63;;;8.67;;
7525;SDS011;3804;50.860;6.208;2023-04-06T05:19:25;14.90;;;8.43;;
7525;SDS011;3804;50.860;6.208;2023-04-06T05:21:52;12.93;;;7.93;;
7525;SDS011;3804;50.860;6.208;2023-04-06T05:24:19;13.40;;;8.80;;
7525;SDS011;3804;50.860;6.208;2023-04-06T05:26:47;15.60;;;8.63;;
7525;SDS011;3804;50.860;6.208;2023-04-06T05:29:20;13.00;;;8.60;;
7525;SDS011;3804;50.860;6.208;2023-04-06T05:31:48;13.57;;;8.73;;
7525;SDS011;3804;50.860;6.208;2023-04-06T05:34:15;12.20;;;7.80;;
7525;SDS011;3804;50.860;6.208;2023-04-06T05:36:42;14.17;;;8.23;;
7525;SDS011;3804;50.860;6.208;2023-04-06T05:39:20;13.20;;;8.23;;
7525;SDS011;3804;50.860;6.208;2023-04-06T05:41:49;16.80;;;8.20;;
7525;SDS011;3804;50.860;6.208;2023-04-06T05:44:26;13.27;;;8.30;;
7525;SDS011;3804;50.860;6.208;2023-04-06T05:47:02;17.13;;;8.43;;
7525;SDS011;3804;50.860;6.208;2023-04-06T05:49:29;12.30;;;7.70;;
7525;SDS011;3804;50.860;6.208;2023-04-06T05:51:56;13.33;;;8.47;;
7525;SDS011;3804;50.860;6.208;2023-04-06T05:54:23;14.00;;;8.23;;
7525;SDS011;3804;50.860;6.208;2023-04-06T05:56:53;14.87;;;8.30;;
7525;SDS011;3804;50.860;6.208;2023-04-06T05:59:20;12.67;;;7.73;;
7525;SDS011;3804;50.860;6.208;2023-04-06T06:01:48;12.50;;;8.40;;
7525;SDS011;3804;50.860;6.208;2023-04-06T06:04:16;14.40;;;8.53;;
7525;SDS011;3804;50.860;6.208;2023-04-06T06:06:44;12.50;;;7.90;;
7525;SDS011;3804;50.860;6.208;2023-04-06T06:09:17;13.43;;;8.80;;
7525;SDS011;3804;50.860;6.208;2023-04-06T06:11:54;12.00;;;8.33;;
7525;SDS011;3804;50.860;6.208;2023-04-06T06:14:24;14.07;;;8.60;;
7525;SDS011;3804;50.860;6.208;2023-04-06T06:16:51;14.60;;;8.83;;
7525;SDS011;3804;50.860;6.208;2023-04-06T06:19:18;13.63;;;8.63;;
7525;SDS011;3804;50.860;6.208;2023-04-06T06:21:46;13.10;;;7.83;;
7525;SDS011;3804;50.860;6.208;2023-04-06T06:24:14;13.77;;;8.63;;
7525;SDS011;3804;50.860;6.208;2023-04-06T06:26:40;13.67;;;8.37;;
7525;SDS011;3804;50.860;6.208;2023-04-06T06:29:10;13.77;;;8.00;;
7525;SDS011;3804;50.860;6.208;2023-04-06T06:31:38;13.57;;;8.70;;
7525;SDS011;3804;50.860;6.208;2023-04-06T06:34:05;13.47;;;8.77;;
7525;SDS011;3804;50.860;6.208;2023-04-06T06:36:36;15.10;;;9.30;;
7525;SDS011;3804;50.860;6.208;2023-04-06T06:39:06;18.43;;;10.97;;
7525;SDS011;3804;50.860;6.208;2023-04-06T06:41:34;21.57;;;9.17;;
7525;SDS011;3804;50.860;6.208;2023-04-06T06:44:01;15.13;;;8.70;;
7525;SDS011;3804;50.860;6.208;2023-04-06T06:46:28;13.20;;;8.30;;
7525;SDS011;3804;50.860;6.208;2023-04-06T06:48:54;13.63;;;8.77;;
7525;SDS011;3804;50.860;6.208;2023-04-06T06:51:21;14.53;;;8.20;;
7525;SDS011;3804;50.860;6.208;2023-04-06T06:53:48;12.00;;;7.30;;
7525;SDS011;3804;50.860;6.208;2023-04-06T06:56:15;12.23;;;7.83;;
7525;SDS011;3804;50.860;6.208;2023-04-06T06:58:42;12.63;;;8.30;;
7525;SDS011;3804;50.860;6.208;2023-04-06T07:01:09;23.60;;;8.90;;
7525;SDS011;3804;50.860;6.208;2023-04-06T07:03:37;11.87;;;8.43;;
7525;SDS011;3804;50.860;6.208;2023-04-06T07:06:04;11.67;;;7.33;;
7525;SDS011;3804;50.860;6.208;2023-04-06T07:08:31;11.93;;;8.33;;
7525;SDS011;3804;50.860;6.208;2023-04-06T07:10:57;14.67;;;8.10;;
7525;SDS011;3804;50.860;6.208;2023-04-06T07:13:24;13.13;;;8.60;;
7525;SDS011;3804;50.860;6.208;2023-04-06T07:15:56;13.40;;;8.87;;
7525;SDS011;3804;50.860;6.208;2023-04-06T07:18:23;15.40;;;8.73;;
7525;SDS011;3804;50.860;6.208;2023-04-06T07:20:50;14.67;;;8.00;;
7525;SDS011;3804;50.860;6.208;2023-04-06T07:23:17;13.67;;;8.13;;
7525;SDS011;3804;50.860;6.208;2023-04-06T07:25:44;15.30;;;8.13;;
7525;SDS011;3804;50.860;6.208;2023-04-06T07:28:11;15.97;;;8.43;;
7525;SDS011;3804;50.860;6.208;2023-04-06T07:30:38;12.83;;;7.53;;
7525;SDS011;3804;50.860;6.208;2023-04-06T07:33:08;17.33;;;8.23;;
7525;SDS011;3804;50.860;6.208;2023-04-06T07:35:35;15.70;;;8.30;;
7525;SDS011;3804;50.860;6.208;2023-04-06T07:38:04;16.97;;;8.50;;
7525;SDS011;3804;50.860;6.208;2023-04-06T07:40:33;15.27;;;8.80;;
7525;SDS011;3804;50.860;6.208;2023-04-06T07:43:00;15.53;;;8.40;;
7525;SDS011;3804;50.860;6.208;2023-04-06T07:45:28;14.77;;;8.73;;
7525;SDS011;3804;50.860;6.208;2023-04-06T07:47:57;14.90;;;8.73;;
7525;SDS011;3804;50.860;6.208;2023-04-06T07:50:26;14.17;;;8.30;;
7525;SDS011;3804;50.860;6.208;2023-04-06T07:52:54;17.13;;;8.80;;
7525;SDS011;3804;50.860;6.208;2023-04-06T07:55:21;17.23;;;9.47;;
7525;SDS011;3804;50.860;6.208;2023-04-06T07:57:48;15.93;;;8.67;;
7525;SDS011;3804;50.860;6.208;2023-04-06T08:00:15;15.77;;;8.33;;
7525;SDS011;3804;50.860;6.208;2023-04-06T08:02:42;12.77;;;7.17;;
7525;SDS011;3804;50.860;6.208;2023-04-06T08:05:09;12.97;;;8.30;;
7525;SDS011;3804;50.860;6.208;2023-04-06T08:07:36;13.57;;;7.57;;
7525;SDS011;3804;50.860;6.208;2023-04-06T08:10:04;13.40;;;7.27;;
7525;SDS011;3804;50.860;6.208;2023-04-06T08:12:31;15.40;;;8.23;;
7525;SDS011;3804;50.860;6.208;2023-04-06T08:14:58;17.47;;;8.10;;
7525;SDS011;3804;50.860;6.208;2023-04-06T08:17:26;14.60;;;8.17;;
7525;SDS011;3804;50.860;6.208;2023-04-06T08:19:56;16.97;;;8.47;;
7525;SDS011;3804;50.860;6.208;2023-04-06T08:22:23;16.53;;;8.67;;
7525;SDS011;3804;50.860;6.208;2023-04-06T08:24:51;16.47;;;7.87;;
7525;SDS011;3804;50.860;6.208;2023-04-06T08:27:18;17.13;;;7.80;;
7525;SDS011;3804;50.860;6.208;2023-04-06T08:29:45;13.40;;;8.20;;
7525;SDS011;3804;50.860;6.208;2023-04-06T08:32:12;16.73;;;8.33;;
7525;SDS011;3804;50.860;6.208;2023-04-06T08:34:38;13.80;;;8.10;;
7525;SDS011;3804;50.860;6.208;2023-04-06T08:37:06;14.57;;;7.87;;
7525;SDS011;3804;50.860;6.208;2023-04-06T08:39:32;17.30;;;8.70;;
7525;SDS011;3804;50.860;6.208;2023-04-06T08:42:00;17.30;;;8.37;;
7525;SDS011;3804;50.860;6.208;2023-04-06T08:44:29;13.27;;;8.50;;
7525;SDS011;3804;50.860;6.208;2023-04-06T08:46:59;13.73;;;7.93;;
7525;SDS011;3804;50.860;6.208;2023-04-06T08:49:26;14.70;;;7.90;;
7525;SDS011;3804;50.860;6.208;2023-04-06T08:51:54;12.53;;;7.67;;
7525;SDS011;3804;50.860;6.208;2023-04-06T08:54:21;12.60;;;7.33;;
7525;SDS011;3804;50.860;6.208;2023-04-06T08:56:48;14.37;;;8.47;;
7525;SDS011;3804;50.860;6.208;2023-04-06T08:59:15;13.47;;;8.37;;
7525;SDS011;3804;50.860;6.208;2023-04-06T09:01:42;12.37;;;7.73;;
7525;SDS011;3804;50.860;6.208;2023-04-06T09:04:09;14.37;;;7.73;;
7525;SDS011;3804;50.860;6.208;2023-04-06T09:06:39;14.80;;;7.87;;
7525;SDS011;3804;50.860;6.208;2023-04-06T09:09:07;13.93;;;8.50;;
7525;SDS011;3804;50.860;6.208;2023-04-06T09:11:42;16.10;;;7.80;;
7525;SDS011;3804;50.860;6.208;2023-04-06T09:14:09;14.30;;;7.47;;
7525;SDS011;3804;50.860;6.208;2023-04-06T09:16:39;13.37;;;8.67;;
7525;SDS011;3804;50.860;6.208;2023-04-06T09:19:07;15.33;;;8.20;;
7525;SDS011;3804;50.860;6.208;2023-04-06T09:21:34;19.37;;;8.77;;
7525;SDS011;3804;50.860;6.208;2023-04-06T09:24:02;12.60;;;7.87;;
7525;SDS011;3804;50.860;6.208;2023-04-06T09:26:30;15.33;;;7.53;;
7525;SDS011;3804;50.860;6.208;2023-04-06T09:28:57;15.03;;;8.57;;
7525;SDS011;3804;50.860;6.208;2023-04-06T09:31:26;15.03;;;8.90;;
7525;SDS011;3804;50.860;6.208;2023-04-06T09:33:53;12.60;;;7.80;;
7525;SDS011;3804;50.860;6.208;2023-04-06T09:36:41;12.43;;;8.80;;
7525;SDS011;3804;50.860;6.208;2023-04-06T09:39:08;14.40;;;8.70;;
7525;SDS011;3804;50.860;6.208;2023-04-06T09:41:36;12.53;;;8.40;;
7525;SDS011;3804;50.860;6.208;2023-04-06T09:46:34;13.90;;;7.40;;
7525;SDS011;3804;50.860;6.208;2023-04-06T09:49:21;15.33;;;9.37;;
7525;SDS011;3804;50.860;6.208;2023-04-06T09:51:50;16.30;;;9.27;;
7525;SDS011;3804;50.860;6.208;2023-04-06T09:54:21;15.17;;;8.60;;
7525;SDS011;3804;50.860;6.208;2023-04-06T09:56:56;14.67;;;8.93;;
7525;SDS011;3804;50.860;6.208;2023-04-06T09:59:26;16.20;;;9.67;;
7525;SDS011;3804;50.860;6.208;2023-04-06T10:01:58;15.03;;;9.57;;
7525;SDS011;3804;50.860;6.208;2023-04-06T10:04:32;15.73;;;9.77;;
7525;SDS011;3804;50.860;6.208;2023-04-06T10:07:01;13.43;;;8.57;;
7525;SDS011;3804;50.860;6.208;2023-04-06T10:09:28;14.47;;;9.47;;
7525;SDS011;3804;50.860;6.208;2023-04-06T10:12:03;22.20;;;10.30;;
7525;SDS011;3804;50.860;6.208;2023-04-06T10:14:31;19.70;;;10.67;;
7525;SDS011;3804;50.860;6.208;2023-04-06T10:16:59;12.33;;;8.47;;
7525;SDS011;3804;50.860;6.208;2023-04-06T10:19:28;22.27;;;9.37;;
7525;SDS011;3804;50.860;6.208;2023-04-06T10:21:56;11.17;;;6.90;;
7525;SDS011;3804;50.860;6.208;2023-04-06T10:24:25;15.17;;;8.37;;
7525;SDS011;3804;50.860;6.208;2023-04-06T10:26:56;11.13;;;7.50;;
7525;SDS011;3804;50.860;6.208;2023-04-06T10:29:23;17.47;;;9.10;;
7525;SDS011;3804;50.860;6.208;2023-04-06T10:31:50;12.80;;;8.57;;
7525;SDS011;3804;50.860;6.208;2023-04-06T10:34:17;13.50;;;8.30;;
7525;SDS011;3804;50.860;6.208;2023-04-06T10:36:44;15.93;;;8.03;;
7525;SDS011;3804;50.860;6.208;2023-04-06T10:39:11;12.27;;;7.67;;
7525;SDS011;3804;50.860;6.208;2023-04-06T10:41:41;11.27;;;7.23;;
7525;SDS011;3804;50.860;6.208;2023-04-06T10:44:16;12.30;;;7.30;;
7525;SDS011;3804;50.860;6.208;2023-04-06T10:46:51;12.53;;;6.43;;
7525;SDS011;3804;50.860;6.208;2023-04-06T10:49:18;11.57;;;6.73;;
7525;SDS011;3804;50.860;6.208;2023-04-06T10:51:45;10.60;;;7.17;;
7525;SDS011;3804;50.860;6.208;2023-04-06T10:54:17;9.57;;;6.67;;
7525;SDS011;3804;50.860;6.208;2023-04-06T10:56:44;14.50;;;7.40;;
7525;SDS011;3804;50.860;6.208;2023-04-06T10:59:11;10.10;;;6.67;;
7525;SDS011;3804;50.860;6.208;2023-04-06T11:01:38;11.23;;;6.90;;
7525;SDS011;3804;50.860;6.208;2023-04-06T11:04:05;11.73;;;7.47;;
7525;SDS011;3804;50.860;6.208;2023-04-06T11:06:31;11.17;;;7.23;;
7525;SDS011;3804;50.860;6.208;2023-04-06T11:08:59;10.10;;;6.97;;
7525;SDS011;3804;50.860;6.208;2023-04-06T11:11:26;8.70;;;5.53;;
7525;SDS011;3804;50.860;6.208;2023-04-06T11:13:54;7.33;;;5.10;;
7525;SDS011;3804;50.860;6.208;2023-04-06T11:16:22;8.20;;;5.23;;
7525;SDS011;3804;50.860;6.208;2023-04-06T11:18:53;7.43;;;5.20;;
7525;SDS011;3804;50.860;6.208;2023-04-06T11:21:30;7.97;;;5.50;;
7525;SDS011;3804;50.860;6.208;2023-04-06T11:26:42;11.67;;;7.03;;
7525;SDS011;3804;50.860;6.208;2023-04-06T11:29:11;10.70;;;6.77;;
7525;SDS011;3804;50.860;6.208;2023-04-06T11:32:21;9.13;;;7.03;;
7525;SDS011;3804;50.860;6.208;2023-04-06T11:34:28;9.30;;;6.37;;
7525;SDS011;3804;50.860;6.208;2023-04-06T11:37:00;9.10;;;6.30;;
7525;SDS011;3804;50.860;6.208;2023-04-06T11:39:28;11.50;;;7.30;;
7525;SDS011;3804;50.860;6.208;2023-04-06T11:42:02;12.50;;;7.10;;
7525;SDS011;3804;50.860;6.208;2023-04-06T11:44:50;11.57;;;7.70;;
7525;SDS011;3804;50.860;6.208;2023-04-06T11:47:17;10.70;;;7.50;;
7525;SDS011;3804;50.860;6.208;2023-04-06T11:49:44;11.60;;;7.80;;
7525;SDS011;3804;50.860;6.208;2023-04-06T11:52:18;10.20;;;7.37;;
7525;SDS011;3804;50.860;6.208;2023-04-06T11:54:47;9.27;;;6.43;;
7525;SDS011;3804;50.860;6.208;2023-04-06T11:57:14;10.13;;;6.50;;
7525;SDS011;3804;50.860;6.208;2023-04-06T11:59:41;8.87;;;6.00;;
7525;SDS011;3804;50.860;6.208;2023-04-06T12:02:08;7.60;;;5.37;;
7525;SDS011;3804;50.860;6.208;2023-04-06T12:04:36;9.17;;;6.13;;
7525;SDS011;3804;50.860;6.208;2023-04-06T12:07:03;7.80;;;5.07;;
7525;SDS011;3804;50.860;6.208;2023-04-06T12:09:30;8.53;;;6.23;;
7525;SDS011;3804;50.860;6.208;2023-04-06T12:11:57;8.13;;;6.17;;
7525;SDS011;3804;50.860;6.208;2023-04-06T12:14:24;9.90;;;5.87;;
7525;SDS011;3804;50.860;6.208;2023-04-06T12:16:51;8.60;;;6.00;;
7525;SDS011;3804;50.860;6.208;2023-04-06T12:19:18;10.67;;;8.20;;
7525;SDS011;3804;50.860;6.208;2023-04-06T12:21:44;10.97;;;7.33;;
7525;SDS011;3804;50.860;6.208;2023-04-06T12:24:11;10.43;;;7.43;;
7525;SDS011;3804;50.860;6.208;2023-04-06T12:26:38;11.63;;;7.83;;
7525;SDS011;3804;50.860;6.208;2023-04-06T12:29:05;11.07;;;7.47;;
7525;SDS011;3804;50.860;6.208;2023-04-06T12:31:35;9.13;;;7.37;;
7525;SDS011;3804;50.860;6.208;2023-04-06T12:34:02;10.53;;;7.50;;
7525;SDS011;3804;50.860;6.208;2023-04-06T12:36:30;10.03;;;7.40;;
7525;SDS011;3804;50.860;6.208;2023-04-06T12:38:58;11.17;;;8.00;;
7525;SDS011;3804;50.860;6.208;2023-04-06T12:41:25;12.47;;;9.07;;
7525;SDS011;3804;50.860;6.208;2023-04-06T12:43:52;10.03;;;7.70;;
7525;SDS011;3804;50.860;6.208;2023-04-06T12:46:19;12.00;;;8.73;;
7525;SDS011;3804;50.860;6.208;2023-04-06T12:48:47;11.13;;;7.73;;
7525;SDS011;3804;50.860;6.208;2023-04-06T12:51:14;12.17;;;7.83;;
7525;SDS011;3804;50.860;6.208;2023-04-06T12:53:41;13.80;;;7.80;;
7525;SDS011;3804;50.860;6.208;2023-04-06T12:56:16;12.07;;;7.53;;
7525;SDS011;3804;50.860;6.208;2023-04-06T12:58:44;11.87;;;7.87;;
7525;SDS011;3804;50.860;6.208;2023-04-06T13:01:11;13.67;;;8.67;;
7525;SDS011;3804;50.860;6.208;2023-04-06T13:03:41;10.83;;;8.07;;
7525;SDS011;3804;50.860;6.208;2023-04-06T13:06:08;23.47;;;18.70;;
7525;SDS011;3804;50.860;6.208;2023-04-06T13:08:35;14.40;;;10.43;;
7525;SDS011;3804;50.860;6.208;2023-04-06T13:11:04;12.40;;;9.93;;
7525;SDS011;3804;50.860;6.208;2023-04-06T13:13:31;16.53;;;10.17;;
7525;SDS011;3804;50.860;6.208;2023-04-06T13:16:02;14.37;;;9.80;;
7525;SDS011;3804;50.860;6.208;2023-04-06T13:18:30;15.77;;;11.37;;
7525;SDS011;3804;50.860;6.208;2023-04-06T13:20:58;11.90;;;7.97;;
7525;SDS011;3804;50.860;6.208;2023-04-06T13:23:26;13.03;;;8.47;;
7525;SDS011;3804;50.860;6.208;2023-04-06T13:26:04;12.97;;;8.33;;
7525;SDS011;3804;50.860;6.208;2023-04-06T13:28:31;13.83;;;11.33;;
7525;SDS011;3804;50.860;6.208;2023-04-06T13:30:59;11.03;;;8.37;;
7525;SDS011;3804;50.860;6.208;2023-04-06T13:33:27;9.37;;;7.37;;
7525;SDS011;3804;50.860;6.208;2023-04-06T13:35:54;9.67;;;7.30;;
7525;SDS011;3804;50.860;6.208;2023-04-06T13:38:21;10.27;;;7.57;;
7525;SDS011;3804;50.860;6.208;2023-04-06T13:40:50;10.13;;;7.00;;
7525;SDS011;3804;50.860;6.208;2023-04-06T13:43:17;16.27;;;11.80;;
7525;SDS011;3804;50.860;6.208;2023-04-06T13:45:50;15.67;;;10.43;;
7525;SDS011;3804;50.860;6.208;2023-04-06T13:48:18;23.73;;;15.57;;
7525;SDS011;3804;50.860;6.208;2023-04-06T13:50:45;22.67;;;14.40;;
7525;SDS011;3804;50.860;6.208;2023-04-06T13:53:15;17.83;;;11.37;;
7525;SDS011;3804;50.860;6.208;2023-04-06T13:55:42;12.63;;;8.30;;
7525;SDS011;3804;50.860;6.208;2023-04-06T13:58:09;11.70;;;7.07;;
7525;SDS011;3804;50.860;6.208;2023-04-06T14:00:36;10.07;;;6.00;;
7525;SDS011;3804;50.860;6.208;2023-04-06T14:03:03;10.90;;;7.23;;
7525;SDS011;3804;50.860;6.208;2023-04-06T14:05:31;9.43;;;7.00;;
7525;SDS011;3804;50.860;6.208;2023-04-06T14:07:58;10.07;;;6.60;;
7525;SDS011;3804;50.860;6.208;2023-04-06T14:10:25;13.93;;;10.50;;
7525;SDS011;3804;50.860;6.208;2023-04-06T14:12:54;15.63;;;11.27;;
7525;SDS011;3804;50.860;6.208;2023-04-06T14:15:22;10.30;;;7.67;;
7525;SDS011;3804;50.860;6.208;2023-04-06T14:17:50;11.47;;;7.33;;
7525;SDS011;3804;50.860;6.208;2023-04-06T14:20:18;9.77;;;7.87;;
7525;SDS011;3804;50.860;6.208;2023-04-06T14:22:45;14.47;;;8.73;;
7525;SDS011;3804;50.860;6.208;2023-04-06T14:25:13;9.30;;;6.40;;
7525;SDS011;3804;50.860;6.208;2023-04-06T14:27:40;7.93;;;5.40;;
7525;SDS011;3804;50.860;6.208;2023-04-06T14:30:07;12.23;;;7.87;;
7525;SDS011;3804;50.860;6.208;2023-04-06T14:32:34;9.23;;;6.07;;
7525;SDS011;3804;50.860;6.208;2023-04-06T14:35:03;8.83;;;6.23;;
7525;SDS011;3804;50.860;6.208;2023-04-06T14:37:32;13.00;;;9.27;;
7525;SDS011;3804;50.860;6.208;2023-04-06T14:39:59;11.33;;;8.70;;
7525;SDS011;3804;50.860;6.208;2023-04-06T14:42:26;9.73;;;7.00;;
7525;SDS011;3804;50.860;6.208;2023-04-06T14:44:53;10.53;;;7.03;;
7525;SDS011;3804;50.860;6.208;2023-04-06T14:47:20;13.33;;;7.80;;
7525;SDS011;3804;50.860;6.208;2023-04-06T14:49:51;12.73;;;9.23;;
7525;SDS011;3804;50.860;6.208;2023-04-06T14:55:39;8.37;;;5.77;;
7525;SDS011;3804;50.860;6.208;2023-04-06T14:58:07;10.87;;;5.60;;
7525;SDS011;3804;50.860;6.208;2023-04-06T15:00:34;10.33;;;6.23;;
7525;SDS011;3804;50.860;6.208;2023-04-06T15:03:01;10.37;;;5.07;;
7525;SDS011;3804;50.860;6.208;2023-04-06T15:05:29;8.97;;;6.80;;
7525;SDS011;3804;50.860;6.208;2023-04-06T15:07:57;15.10;;;6.97;;
7525;SDS011;3804;50.860;6.208;2023-04-06T15:10:24;10.03;;;6.27;;
7525;SDS011;3804;50.860;6.208;2023-04-06T15:12:51;9.23;;;6.20;;
7525;SDS011;3804;50.860;6.208;2023-04-06T15:15:17;11.53;;;7.10;;
7525;SDS011;3804;50.860;6.208;2023-04-06T15:17:44;8.73;;;6.30;;
7525;SDS011;3804;50.860;6.208;2023-04-06T15:20:11;7.23;;;4.93;;
7525;SDS011;3804;50.860;6.208;2023-04-06T15:22:38;8.67;;;5.50;;
7525;SDS011;3804;50.860;6.208;2023-04-06T15:25:06;7.90;;;6.40;;